Time;durP1;ratioP1;P1;durP2;ratioP2;P2;SDS_P1;SDS_P2;PMS_P1;PMS_P2;Temp;Humidity;BMP_temperature;BMP_pressure;BME280_temperature;BME280_humidity;BME280_pressure;Samples;Min_cycle;Max_cycle;Signal;HPM_P1;HPM_P2
2021/05/28 00:02:21;;;;;;;7.93;2.60;;;;;;;14.98;55.37;99662.75;6110260;23;20027;-75
2021/05/28 00:04:47;;;;;;;15.70;4.80;;;;;;;14.87;55.71;99665.59;6134586;23;20392;-75
2021/05/28 00:07:13;;;;;;;12.10;5.95;;;;;;;14.78;56.21;99660.06;6111710;23;20028;-76
2021/05/28 00:09:40;;;;;;;12.98;8.18;;;;;;;14.77;56.17;99661.03;6136453;23;20025;-76
2021/05/28 00:12:06;;;;;;;12.15;8.68;;;;;;;14.84;55.81;99665.88;6187365;23;20465;-76
2021/05/28 00:14:32;;;;;;;15.77;10.25;;;;;;;14.86;55.97;99663.91;6161019;23;20041;-75
2021/05/28 00:16:58;;;;;;;15.52;9.05;;;;;;;14.79;56.08;99658.22;6185677;23;20513;-77
2021/05/28 00:19:24;;;;;;;13.00;8.30;;;;;;;14.77;55.80;99660.19;6136467;23;20456;-75
2021/05/28 00:21:50;;;;;;;11.88;7.68;;;;;;;14.74;56.24;99669.41;6160978;23;20095;-75
2021/05/28 00:24:16;;;;;;;9.88;7.05;;;;;;;14.73;55.76;99667.69;6161089;23;20029;-74
2021/05/28 00:26:42;;;;;;;13.30;6.00;;;;;;;14.70;56.13;99665.28;6185815;23;20021;-75
2021/05/28 00:29:12;;;;;;;10.70;5.18;;;;;;;14.70;55.98;99661.75;6091085;23;20021;-75
2021/05/28 00:31:38;;;;;;;17.55;6.18;;;;;;;14.69;56.22;99666.28;6160563;23;20470;-76
2021/05/28 00:34:04;;;;;;;8.63;6.57;;;;;;;14.64;56.41;99659.63;6134942;23;20013;-75
2021/05/28 00:36:30;;;;;;;11.25;7.50;;;;;;;14.68;56.13;99661.91;6160655;23;20348;-76
2021/05/28 00:38:56;;;;;;;13.38;8.18;;;;;;;14.64;56.71;99665.88;6111729;23;20050;-75
2021/05/28 00:41:22;;;;;;;10.68;8.60;;;;;;;14.46;56.92;99648.69;6136388;23;20017;-76
2021/05/28 00:43:48;;;;;;;15.85;8.55;;;;;;;14.60;56.61;99666.28;6136086;23;20024;-77
2021/05/28 00:46:14;;;;;;;17.13;10.52;;;;;;;14.65;56.52;99667.56;6160453;23;20091;-76
2021/05/28 00:48:40;;;;;;;17.55;11.50;;;;;;;14.76;56.37;99662.03;6136798;23;20445;-75
2021/05/28 00:51:06;;;;;;;26.90;14.70;;;;;;;14.85;56.38;99667.56;6136532;23;20024;-77
2021/05/28 00:53:32;;;;;;;27.83;17.08;;;;;;;14.80;56.47;99658.06;6186598;23;20021;-76
2021/05/28 00:55:59;;;;;;;27.55;18.10;;;;;;;14.83;56.41;99659.63;6160787;23;20028;-74
2021/05/28 00:58:25;;;;;;;31.73;17.88;;;;;;;14.89;55.96;99660.91;6161086;23;20013;-76
2021/05/28 01:00:51;;;;;;;27.48;18.05;;;;;;;14.96;55.97;99670.94;6136587;23;20067;-75
2021/05/28 01:03:16;;;;;;;25.88;17.08;;;;;;;14.96;55.75;99665.56;6187092;23;20098;-76
2021/05/28 01:05:42;;;;;;;22.48;16.15;;;;;;;14.99;55.93;99669.81;6136939;23;20094;-76
2021/05/28 01:08:08;;;;;;;23.05;14.65;;;;;;;15.01;55.77;99667.84;6186801;23;20314;-75
2021/05/28 01:10:34;;;;;;;24.13;13.70;;;;;;;15.03;55.54;99663.16;6135824;23;20028;-76
2021/05/28 01:13:04;;;;;;;14.18;11.35;;;;;;;15.10;55.68;99688.50;6135864;23;20503;-76
2021/05/28 01:15:31;;;;;;;19.50;12.48;;;;;;;15.14;55.54;99679.16;6135817;23;20025;-75
2021/05/28 01:18:04;;;;;;;11.88;8.00;;;;;;;15.15;55.44;99680.84;6185110;23;20021;-74
2021/05/28 01:20:30;;;;;;;11.32;6.90;;;;;;;15.14;55.14;99670.22;6111719;23;20024;-74
2021/05/28 01:22:58;;;;;;;5.40;3.22;;;;;;;15.10;55.02;99675.06;6136157;23;20519;-76
2021/05/28 01:25:25;;;;;;;6.68;2.25;;;;;;;15.04;55.01;99673.78;6136575;23;20025;-76
2021/05/28 01:27:51;;;;;;;4.53;2.40;;;;;;;15.05;55.10;99674.66;6135966;23;20017;-75
2021/05/28 01:30:17;;;;;;;5.13;2.13;;;;;;;14.89;55.47;99659.03;6135768;23;20056;-77
2021/05/28 01:32:44;;;;;;;5.38;2.53;;;;;;;14.87;55.87;99673.66;6160402;23;20021;-77
2021/05/28 01:35:11;;;;;;;6.18;3.95;;;;;;;14.77;56.24;99671.81;6160041;23;20076;-78
2021/05/28 01:37:37;;;;;;;9.55;4.85;;;;;;;14.69;56.73;99663.59;6136104;23;20067;-74
2021/05/28 01:40:04;;;;;;;12.52;5.13;;;;;;;14.85;56.72;99672.94;6135653;23;20461;-77
2021/05/28 01:42:30;;;;;;;9.95;5.40;;;;;;;14.94;56.65;99678.34;6185221;23;20075;-75
2021/05/28 01:44:57;;;;;;;18.67;8.23;;;;;;;15.02;56.33;99683.00;6136337;23;20036;-76
2021/05/28 01:47:23;;;;;;;14.23;9.10;;;;;;;14.82;57.01;99669.56;6186366;23;20456;-75
2021/05/28 01:49:49;;;;;;;14.73;8.63;;;;;;;14.92;56.84;99680.31;6110956;23;20020;-75
2021/05/28 01:52:15;;;;;;;20.55;9.20;;;;;;;15.09;56.69;99681.44;6135423;23;20016;-75
2021/05/28 01:54:41;;;;;;;16.65;8.48;;;;;;;15.15;56.63;99671.91;6160183;23;20049;-76
2021/05/28 01:57:08;;;;;;;11.98;9.48;;;;;;;15.36;56.32;99677.16;6159893;23;20400;-78
2021/05/28 01:59:34;;;;;;;15.45;8.73;;;;;;;15.54;56.09;99676.25;6160108;23;20021;-77
2021/05/28 02:02:00;;;;;;;23.75;16.92;;;;;;;15.71;55.75;99677.34;6160451;23;20112;-76
2021/05/28 02:04:26;;;;;;;17.10;8.85;;;;;;;15.92;55.37;99678.97;6184602;23;20028;-79
2021/05/28 02:06:53;;;;;;;23.33;10.10;;;;;;;15.76;55.25;99672.38;6110974;23;20361;-76
2021/05/28 02:09:19;;;;;;;15.45;7.88;;;;;;;15.71;55.73;99671.94;6135283;23;20537;-76
2021/05/28 02:11:45;;;;;;;26.10;8.70;;;;;;;15.59;56.20;99678.50;6111027;23;20025;-76
2021/05/28 02:14:11;;;;;;;24.77;9.20;;;;;;;15.66;56.01;99689.56;6110731;23;20473;-77
2021/05/28 02:16:37;;;;;;;21.27;8.90;;;;;;;15.61;56.50;99665.72;6184521;23;20063;-76
2021/05/28 02:19:04;;;;;;;20.20;9.55;;;;;;;15.66;56.50;99676.94;6160056;23;20037;-77
2021/05/28 02:21:30;;;;;;;26.20;9.18;;;;;;;15.53;56.73;99666.47;6159996;23;20021;-76
2021/05/28 02:23:56;;;;;;;23.48;9.77;;;;;;;15.50;57.16;99669.44;6159765;23;20021;-77
2021/05/28 02:26:22;;;;;;;19.17;9.40;;;;;;;15.78;56.56;99683.00;6159566;23;20044;-76
2021/05/28 02:28:48;;;;;;;24.77;10.20;;;;;;;16.03;56.03;99670.69;6159151;23;20027;-76
2021/05/28 02:31:14;;;;;;;30.27;10.52;;;;;;;16.20;55.64;99677.97;6184262;23;20130;-77
2021/05/28 02:33:40;;;;;;;27.95;11.50;;;;;;;16.37;55.53;99668.22;6135065;23;20017;-76
2021/05/28 02:36:07;;;;;;;37.65;11.77;;;;;;;16.31;55.62;99667.97;6086153;23;20492;-77
2021/05/28 02:38:33;;;;;;;33.85;11.90;;;;;;;16.26;56.00;99671.97;6159517;23;20023;-77
2021/05/28 02:40:59;;;;;;;33.05;11.52;;;;;;;16.40;55.75;99672.47;6184011;23;20024;-76
2021/05/28 02:43:25;;;;;;;52.65;12.43;;;;;;;16.50;55.42;99678.63;6184247;23;20021;-77
2021/05/28 02:45:51;;;;;;;29.15;11.15;;;;;;;16.69;55.08;99674.94;6159356;23;20449;-79
2021/05/28 02:48:17;;;;;;;48.08;10.85;;;;;;;16.85;54.82;99676.97;6134865;23;20021;-79
2021/05/28 02:50:43;;;;;;;40.28;10.32;;;;;;;17.00;54.33;99678.16;6159416;23;20025;-76
2021/05/28 02:53:10;;;;;;;55.05;11.48;;;;;;;17.10;54.62;99681.59;6134745;23;20330;-75
2021/05/28 02:55:36;;;;;;;58.08;10.95;;;;;;;17.22;54.07;99676.78;6159947;23;20461;-75
2021/05/28 02:58:02;;;;;;;58.92;13.05;;;;;;;17.37;53.88;99677.06;6086326;23;20017;-77
2021/05/28 03:00:28;;;;;;;53.38;12.77;;;;;;;17.51;53.57;99681.91;6134894;23;20017;-78
2021/05/28 03:02:54;;;;;;;59.33;14.82;;;;;;;17.66;53.20;99682.16;6184147;23;20099;-77
2021/05/28 03:05:20;;;;;;;80.38;15.50;;;;;;;17.75;52.94;99683.03;6134966;23;20016;-78
2021/05/28 03:07:46;;;;;;;68.75;14.32;;;;;;;17.78;53.12;99685.47;6159202;23;20445;-77
2021/05/28 03:10:13;;;;;;;67.28;12.90;;;;;;;17.88;52.86;99686.22;6158813;23;20120;-78
2021/05/28 03:12:39;;;;;;;55.63;13.35;;;;;;;18.01;52.66;99692.00;6183878;23;20056;-75
2021/05/28 03:15:05;;;;;;;58.08;14.43;;;;;;;18.11;52.60;99698.16;6184459;23;20052;-77
2021/05/28 03:17:31;;;;;;;65.55;14.18;;;;;;;18.24;52.06;99692.28;6086476;23;20021;-77
2021/05/28 03:19:58;;;;;;;68.45;13.45;;;;;;;18.15;52.63;99691.38;6110506;23;20031;-78
2021/05/28 03:22:33;;;;;;;55.33;14.38;;;;;;;18.13;52.37;99690.72;6159169;23;20017;-76
2021/05/28 03:25:08;;;;;;;69.50;14.73;;;;;;;18.17;52.35;99686.69;6138553;23;20021;-76
2021/05/28 03:27:53;;;;;;;92.05;15.13;;;;;;;18.44;52.17;99687.44;6143096;23;20017;-76
2021/05/28 03:30:20;;;;;;;75.95;17.42;;;;;;;18.46;51.44;99685.41;6135331;23;20024;-77
2021/05/28 03:32:46;;;;;;;68.05;15.43;;;;;;;18.35;51.74;99688.41;6134929;23;20031;-76
2021/05/28 03:35:12;;;;;;;71.78;17.17;;;;;;;18.39;51.85;99689.78;6158613;23;20368;-77
2021/05/28 03:37:38;;;;;;;86.15;16.58;;;;;;;18.35;51.71;99672.19;6184051;23;20030;-79
2021/05/28 03:40:05;;;;;;;78.05;16.58;;;;;;;18.59;51.70;99691.19;6159296;23;20059;-77
2021/05/28 03:42:32;;;;;;;50.92;14.40;;;;;;;18.93;51.04;99692.97;6135023;23;20092;-77
2021/05/28 03:44:58;;;;;;;95.25;16.48;;;;;;;19.12;50.33;99691.81;6134936;23;20023;-77
2021/05/28 03:47:24;;;;;;;73.47;13.77;;;;;;;19.26;49.79;99687.59;6086394;23;20104;-76
2021/05/28 03:49:50;;;;;;;77.85;15.70;;;;;;;19.29;49.62;99689.94;6183879;23;20017;-76
2021/05/28 03:52:16;;;;;;;74.90;16.42;;;;;;;19.25;50.03;99689.41;6184135;23;20204;-75
2021/05/28 03:54:41;;;;;;;75.57;15.40;;;;;;;19.42;49.77;99693.81;6186029;23;20029;-76
2021/05/28 03:57:07;;;;;;;98.35;16.45;;;;;;;19.55;48.76;99682.44;6185290;23;20112;-77
2021/05/28 03:59:34;;;;;;;84.55;16.15;;;;;;;19.70;48.85;99695.31;6110166;23;20027;-77
2021/05/28 04:02:00;;;;;;;84.88;17.08;;;;;;;19.78;48.37;99690.75;6134756;23;20017;-77
2021/05/28 04:04:26;;;;;;;74.68;16.17;;;;;;;19.73;48.22;99681.44;6135059;23;20029;-78
2021/05/28 04:06:52;;;;;;;84.72;17.60;;;;;;;19.69;47.96;99683.63;6134941;23;20422;-79
2021/05/28 04:09:18;;;;;;;90.65;18.20;;;;;;;19.66;48.51;99689.41;6110335;23;20052;-76
2021/05/28 04:11:44;;;;;;;103.80;19.35;;;;;;;19.73;48.11;99684.13;6185128;23;20108;-78
2021/05/28 04:14:10;;;;;;;113.53;19.58;;;;;;;19.92;48.04;99683.75;6086109;23;20032;-76
2021/05/28 04:16:36;;;;;;;99.25;19.85;;;;;;;20.22;47.61;99683.97;6109954;23;20108;-75
2021/05/28 04:19:02;;;;;;;129.18;22.00;;;;;;;20.32;46.95;99679.19;6159053;23;20052;-76
2021/05/28 04:21:28;;;;;;;103.82;19.33;;;;;;;20.28;46.52;99677.84;6183272;23;20101;-77
2021/05/28 04:23:53;;;;;;;142.05;21.27;;;;;;;20.31;46.80;99674.75;6133489;23;20357;-79
2021/05/28 04:26:19;;;;;;;104.05;17.88;;;;;;;20.30;46.66;99675.78;6158702;23;20021;-77
2021/05/28 04:28:45;;;;;;;92.00;16.92;;;;;;;20.23;46.15;99658.50;6184765;23;20092;-77
2021/05/28 04:31:11;;;;;;;94.63;16.13;;;;;;;20.51;45.92;99676.03;6159132;23;20036;-78
2021/05/28 04:33:37;;;;;;;84.95;14.57;;;;;;;20.90;45.90;99663.38;6183250;23;20020;-78
2021/05/28 04:36:03;;;;;;;102.28;15.43;;;;;;;21.15;45.25;99653.16;6133840;23;20095;-78
2021/05/28 04:38:30;;;;;;;97.18;15.73;;;;;;;21.33;44.52;99648.28;6158738;23;20017;-78
2021/05/28 04:40:56;;;;;;;80.43;12.68;;;;;;;21.23;43.52;99651.22;6109912;23;20037;-76
2021/05/28 04:43:22;;;;;;;70.32;12.32;;;;;;;21.16;43.53;99654.84;6185127;23;20021;-80
2021/05/28 04:45:48;;;;;;;66.88;11.10;;;;;;;21.16;43.62;99655.69;6109790;23;20479;-79
2021/05/28 04:48:14;;;;;;;72.03;12.05;;;;;;;21.21;43.35;99658.72;6183865;23;20052;-78
2021/05/28 04:50:40;;;;;;;66.32;11.35;;;;;;;21.24;43.32;99642.03;6183748;23;20064;-76
2021/05/28 04:53:06;;;;;;;74.35;9.07;;;;;;;21.28;42.92;99643.34;6159152;23;20052;-77
2021/05/28 04:55:32;;;;;;;48.90;9.02;;;;;;;21.51;43.14;99646.06;6186588;23;20039;-76
2021/05/28 04:57:58;;;;;;;40.78;6.53;;;;;;;21.93;42.62;99651.88;6186442;23;20048;-77
2021/05/28 05:00:27;;;;;;;33.78;5.72;;;;;;;22.20;42.45;99647.66;6160477;23;20028;-79
2021/05/28 05:02:53;;;;;;;32.33;4.28;;;;;;;22.46;41.72;99647.97;6135850;23;20051;-78
2021/05/28 05:05:19;;;;;;;15.30;2.83;;;;;;;22.65;40.76;99656.56;6185205;23;20020;-77
2021/05/28 05:07:45;;;;;;;27.02;4.03;;;;;;;22.88;40.85;99648.19;6185052;23;20016;-79
2021/05/28 05:10:11;;;;;;;50.67;4.18;;;;;;;23.02;40.28;99647.31;6185257;23;20017;-77
2021/05/28 05:12:38;;;;;;;19.27;4.25;;;;;;;23.14;40.29;99644.91;6161087;23;20041;-79
2021/05/28 05:15:05;;;;;;;14.35;4.43;;;;;;;23.38;39.95;99649.06;6112872;23;20031;-80
2021/05/28 05:17:31;;;;;;;11.30;2.92;;;;;;;23.42;38.73;99643.00;6160473;23;20021;-76
2021/05/28 05:19:57;;;;;;;12.50;2.50;;;;;;;23.18;38.30;99647.03;6185011;23;20017;-75
2021/05/28 05:22:23;;;;;;;16.20;2.67;;;;;;;23.13;38.71;99646.78;6184903;23;20041;-76
2021/05/28 05:24:49;;;;;;;10.35;2.63;;;;;;;23.27;38.43;99643.13;6160741;23;20017;-77
2021/05/28 05:27:15;;;;;;;24.80;2.67;;;;;;;23.25;38.19;99647.09;6160573;23;20087;-79
2021/05/28 05:29:41;;;;;;;7.63;1.70;;;;;;;23.05;38.18;99646.06;6111552;23;20449;-78
2021/05/28 05:32:07;;;;;;;12.90;1.90;;;;;;;23.20;38.74;99639.47;6111192;23;20468;-77
2021/05/28 05:34:33;;;;;;;6.72;1.83;;;;;;;23.42;38.80;99634.00;6185364;23;20029;-77
2021/05/28 05:37:00;;;;;;;6.93;2.42;;;;;;;23.69;38.68;99635.03;6159931;23;20392;-77
2021/05/28 05:39:27;;;;;;;6.65;2.30;;;;;;;23.92;37.95;99621.97;6185926;23;20075;-77
2021/05/28 05:41:53;;;;;;;12.77;2.42;;;;;;;23.78;38.01;99625.66;6135587;23;20074;-76
2021/05/28 05:44:19;;;;;;;10.65;2.38;;;;;;;23.74;38.06;99622.50;6186672;23;20017;-77
2021/05/28 05:46:45;;;;;;;8.73;2.03;;;;;;;23.88;38.62;99617.97;6159836;23;20048;-80
2021/05/28 05:49:11;;;;;;;10.68;2.13;;;;;;;23.98;38.33;99618.41;6184436;23;20100;-77
2021/05/28 05:51:37;;;;;;;14.02;1.90;;;;;;;24.19;38.51;99613.88;6159895;23;20021;-77
2021/05/28 05:54:04;;;;;;;10.98;2.25;;;;;;;24.40;38.26;99608.28;6110979;23;20083;-77
2021/05/28 05:56:30;;;;;;;16.02;1.70;;;;;;;24.40;37.09;99615.66;6135867;23;20024;-78
2021/05/28 05:58:56;;;;;;;16.65;4.18;;;;;;;24.54;36.95;99608.34;6135949;23;20025;-77
2021/05/28 06:01:22;;;;;;;9.50;2.40;;;;;;;24.65;36.99;99622.25;6134913;23;20020;-77
2021/05/28 06:03:48;;;;;;;9.40;2.20;;;;;;;24.77;36.99;99614.25;6184542;23;20021;-78
2021/05/28 06:06:14;;;;;;;9.18;1.98;;;;;;;24.96;36.60;99613.44;6159720;23;20012;-77
2021/05/28 06:08:40;;;;;;;20.38;2.35;;;;;;;25.21;36.46;99607.38;6135104;23;20071;-77
2021/05/28 06:11:06;;;;;;;5.97;2.08;;;;;;;25.08;34.97;99615.53;6184306;23;20040;-77
2021/05/28 06:13:32;;;;;;;12.63;2.30;;;;;;;25.23;35.17;99612.63;6111258;23;20048;-76
2021/05/28 06:15:58;;;;;;;9.63;2.20;;;;;;;25.32;34.81;99614.94;6135035;23;20025;-76
2021/05/28 06:18:24;;;;;;;17.77;3.10;;;;;;;25.47;34.64;99608.41;6184335;23;20148;-77
2021/05/28 06:20:50;;;;;;;8.18;2.28;;;;;;;25.59;34.79;99601.22;6183985;23;20025;-77
2021/05/28 06:23:16;;;;;;;10.48;2.38;;;;;;;25.85;34.64;99606.66;6110848;23;20360;-78
2021/05/28 06:25:44;;;;;;;14.50;2.95;;;;;;;25.87;34.39;99601.78;6134758;23;20025;-77
2021/05/28 06:28:11;;;;;;;10.63;2.05;;;;;;;25.65;33.74;99600.34;6136276;23;20021;-78
2021/05/28 06:30:38;;;;;;;13.18;2.50;;;;;;;25.71;33.80;99599.50;6135016;23;20402;-79
2021/05/28 06:33:09;;;;;;;13.45;2.42;;;;;;;25.63;33.60;99591.53;6136244;23;20027;-78
2021/05/28 06:35:37;;;;;;;20.85;2.63;;;;;;;25.82;33.39;99595.28;6184439;23;20439;-78
2021/05/28 06:38:03;;;;;;;;;;;;;;;25.91;32.97;99600.34;6186718;23;20075;-78
2021/05/28 06:40:29;;;;;;;10.18;1.90;;;;;;;25.86;31.71;99594.63;6185149;23;20333;-79
2021/05/28 06:42:55;;;;;;;12.77;2.55;;;;;;;25.97;31.90;99604.09;6186252;23;20457;-77
2021/05/28 06:45:22;;;;;;;4.03;1.63;;;;;;;26.05;32.12;99589.31;6160004;23;20020;-81
2021/05/28 06:47:48;;;;;;;11.50;1.92;;;;;;;26.21;31.88;99588.78;6135414;23;20032;-78
2021/05/28 06:50:15;;;;;;;4.88;1.45;;;;;;;25.81;32.34;99588.16;6135166;23;20056;-79
2021/05/28 06:52:41;;;;;;;5.80;1.95;;;;;;;25.89;32.22;99577.78;6186052;23;20017;-80
2021/05/28 06:55:08;;;;;;;12.85;1.92;;;;;;;26.14;31.72;99575.16;6159720;23;20025;-79
2021/05/28 06:57:34;;;;;;;6.32;2.03;;;;;;;26.25;31.99;99579.06;6159981;23;20024;-79
2021/05/28 07:00:00;;;;;;;9.40;2.05;;;;;;;26.34;31.88;99583.25;6158747;23;20417;-79
2021/05/28 07:02:26;;;;;;;8.80;2.60;;;;;;;26.37;32.32;99574.59;6159329;23;20032;-77
2021/05/28 07:04:52;;;;;;;10.45;1.95;;;;;;;26.37;32.20;99562.81;6185420;23;20017;-77
2021/05/28 07:07:19;;;;;;;24.27;3.10;;;;;;;26.63;31.92;99559.09;6184138;23;20021;-76
2021/05/28 07:09:45;;;;;;;18.38;3.10;;;;;;;26.72;31.90;99557.75;6185652;23;20096;-78
2021/05/28 07:12:11;;;;;;;9.43;2.55;;;;;;;26.84;31.77;99557.84;6159708;23;20079;-77
2021/05/28 07:14:37;;;;;;;11.00;2.60;;;;;;;26.94;31.72;99557.38;6158956;23;20421;-77
2021/05/28 07:17:03;;;;;;;9.40;2.22;;;;;;;27.19;31.62;99560.94;6158323;23;20021;-76
2021/05/28 07:19:29;;;;;;;11.20;3.30;;;;;;;27.05;31.55;99551.97;6182930;23;20024;-76
2021/05/28 07:21:55;;;;;;;8.38;2.55;;;;;;;27.01;31.24;99549.91;6185000;23;20055;-76
2021/05/28 07:24:21;;;;;;;12.00;2.78;;;;;;;27.07;31.42;99546.25;6183688;23;20025;-79
2021/05/28 07:26:47;;;;;;;10.48;2.58;;;;;;;27.27;31.46;99543.34;6183972;23;20021;-78
2021/05/28 07:29:13;;;;;;;8.75;2.60;;;;;;;27.54;31.13;99541.19;6159471;23;20028;-80
2021/05/28 07:31:39;;;;;;;14.52;3.20;;;;;;;27.77;30.17;99540.53;6135186;23;20021;-79
2021/05/28 07:34:06;;;;;;;7.97;3.00;;;;;;;27.74;30.04;99544.56;6134981;23;20021;-81
2021/05/28 07:36:32;;;;;;;9.50;3.08;;;;;;;27.47;30.63;99545.91;6135346;23;20083;-78
2021/05/28 07:38:59;;;;;;;9.73;3.10;;;;;;;27.83;30.44;99537.69;6184050;23;20021;-77
2021/05/28 07:41:24;;;;;;;15.05;4.10;;;;;;;28.06;29.95;99528.72;6110437;23;20017;-77
2021/05/28 07:43:51;;;;;;;11.23;3.33;;;;;;;28.37;30.05;99531.47;6184157;23;20035;-77
2021/05/28 07:46:17;;;;;;;8.30;3.20;;;;;;;28.62;29.63;99534.06;6134794;23;20197;-78
2021/05/28 07:48:43;;;;;;;18.15;4.30;;;;;;;28.72;29.16;99526.06;6110536;23;20111;-78
2021/05/28 07:51:09;;;;;;;15.20;3.60;;;;;;;28.70;28.84;99515.31;6135103;23;20075;-81
2021/05/28 07:53:35;;;;;;;11.88;3.42;;;;;;;28.94;29.58;99520.84;6134919;23;20021;-80
2021/05/28 07:56:05;;;;;;;12.32;3.10;;;;;;;29.06;27.75;99518.97;6159124;23;20533;-77
2021/05/28 07:58:32;;;;;;;15.05;3.60;;;;;;;28.82;28.13;99522.75;6183442;23;20021;-79
2021/05/28 08:00:58;;;;;;;18.35;3.50;;;;;;;28.95;28.52;99519.75;6183443;23;20075;-79
2021/05/28 08:03:25;;;;;;;12.25;3.08;;;;;;;29.22;28.08;99518.22;6158515;23;20025;-78
2021/05/28 08:05:51;;;;;;;15.35;3.10;;;;;;;29.09;28.39;99517.66;6183046;23;20023;-77
2021/05/28 08:08:22;;;;;;;29.92;3.42;;;;;;;29.11;28.05;99505.34;6159259;23;20017;-78
2021/05/28 08:10:48;;;;;;;11.80;3.15;;;;;;;29.25;27.71;99517.75;6135208;23;20025;-78
2021/05/28 08:13:14;;;;;;;16.48;2.90;;;;;;;29.31;27.15;99507.72;6159078;23;20021;-78
2021/05/28 08:15:41;;;;;;;14.93;3.03;;;;;;;29.51;27.54;99515.56;6185511;23;20021;-80
2021/05/28 08:18:07;;;;;;;17.80;2.75;;;;;;;29.70;26.99;99506.09;6110327;23;20021;-77
2021/05/28 08:20:33;;;;;;;15.38;2.63;;;;;;;29.65;27.17;99506.00;6159256;23;20017;-79
2021/05/28 08:22:59;;;;;;;20.13;2.78;;;;;;;29.94;27.50;99500.50;6135226;23;20017;-77
2021/05/28 08:25:28;;;;;;;14.95;2.50;;;;;;;30.15;26.58;99505.34;6134902;23;20515;-78
2021/05/28 08:27:55;;;;;;;14.38;3.20;;;;;;;30.27;26.91;99496.19;6134849;23;20385;-77
2021/05/28 08:30:21;;;;;;;16.23;2.90;;;;;;;30.31;26.38;99494.63;6185470;23;20021;-78
2021/05/28 08:32:47;;;;;;;16.05;2.67;;;;;;;30.22;26.62;99506.06;6160571;23;20111;-78
2021/05/28 08:35:14;;;;;;;8.55;2.67;;;;;;;30.10;26.59;99487.88;6185215;23;20021;-78
2021/05/28 08:37:40;;;;;;;13.18;2.55;;;;;;;30.17;25.90;99491.34;6161146;23;20021;-78
2021/05/28 08:40:07;;;;;;;17.73;3.05;;;;;;;30.24;26.38;99483.75;6111711;23;20017;-76
2021/05/28 08:42:33;;;;;;;12.60;2.55;;;;;;;30.61;26.16;99489.63;6112066;23;20518;-77
2021/05/28 08:45:00;;;;;;;17.50;2.80;;;;;;;30.72;26.01;99477.66;6160631;23;20045;-78
2021/05/28 08:47:26;;;;;;;11.77;2.25;;;;;;;30.71;25.52;99475.19;6184724;23;20020;-78
2021/05/28 08:49:53;;;;;;;14.57;2.83;;;;;;;30.73;26.11;99478.53;6160353;23;20353;-77
2021/05/28 08:52:20;;;;;;;19.80;2.50;;;;;;;30.99;25.82;99467.91;6186433;23;20474;-77
2021/05/28 08:54:47;;;;;;;11.07;2.10;;;;;;;31.31;26.07;99479.16;6185154;23;20051;-78
2021/05/28 08:57:13;;;;;;;15.38;2.30;;;;;;;31.55;25.56;99469.53;6160710;23;20021;-79
2021/05/28 08:59:39;;;;;;;6.88;2.38;;;;;;;31.52;25.10;99470.06;6135814;23;20040;-77
2021/05/28 09:02:27;;;;;;;14.30;2.60;;;;;;;31.62;24.48;99470.19;6136604;23;20472;-79
2021/05/28 09:05:12;;;;;;;17.52;2.03;;;;;;;31.49;24.77;99456.75;6163736;23;20013;-79
2021/05/28 09:07:40;;;;;;;14.70;2.22;;;;;;;31.55;25.22;99458.47;6135956;23;20083;-77
2021/05/28 09:10:29;;;;;;;11.30;2.23;;;;;;;31.48;24.68;99457.00;6136318;23;20036;-76
2021/05/28 09:13:10;;;;;;;10.80;2.03;;;;;;;31.78;24.71;99451.84;6185502;23;20271;-79
2021/05/28 09:15:37;;;;;;;9.30;1.80;;;;;;;31.95;23.70;99439.91;6137201;23;20020;-80
2021/05/28 09:18:03;;;;;;;12.77;2.40;;;;;;;31.84;23.88;99438.94;6185532;23;20024;-78
2021/05/28 09:20:29;;;;;;;11.93;2.30;;;;;;;31.92;24.20;99439.31;6184750;23;20428;-78
2021/05/28 09:23:18;;;;;;;11.73;1.88;;;;;;;31.95;23.90;99435.22;6186613;23;20476;-77
2021/05/28 09:25:54;;;;;;;11.30;1.73;;;;;;;32.03;24.14;99434.72;6161870;23;20048;-78
2021/05/28 09:28:20;;;;;;;15.90;1.95;;;;;;;32.30;23.58;99429.16;6136948;23;20024;-78
2021/05/28 09:31:02;;;;;;;20.75;2.13;;;;;;;32.43;24.15;99433.47;6160587;23;20017;-78
2021/05/28 09:33:32;;;;;;;13.35;2.25;;;;;;;32.58;22.90;99430.84;6137222;23;20057;-78
2021/05/28 09:36:10;;;;;;;8.27;1.80;;;;;;;32.48;22.58;99429.91;6186670;23;20023;-77
2021/05/28 09:38:37;;;;;;;7.18;1.90;;;;;;;32.56;22.34;99423.88;6185218;23;20028;-77
2021/05/28 09:41:04;;;;;;;8.63;1.48;;;;;;;32.29;22.55;99423.91;6111611;23;20032;-76
2021/05/28 09:43:30;;;;;;;7.95;1.75;;;;;;;32.36;22.75;99419.00;6135637;23;20027;-79
2021/05/28 09:45:56;;;;;;;7.13;2.53;;;;;;;32.41;23.10;99416.28;6159952;23;20360;-79
2021/05/28 09:48:26;;;;;;;14.77;2.38;;;;;;;32.83;23.02;99412.72;6186433;23;20017;-77
2021/05/28 09:50:59;;;;;;;16.25;1.98;;;;;;;33.43;22.41;99408.63;6113140;23;20449;-77
2021/05/28 09:53:40;;;;;;;15.85;2.33;;;;;;;34.06;21.68;99419.69;6136020;23;20072;-77
2021/05/28 09:56:22;;;;;;;11.32;1.75;;;;;;;34.36;21.35;99418.88;6162186;23;20504;-78
2021/05/28 09:59:08;;;;;;;5.15;1.40;;;;;;;34.52;20.80;99412.22;6135901;23;20070;-78
2021/05/28 10:01:35;;;;;;;5.13;1.42;;;;;;;34.64;20.73;99405.56;6136057;23;20071;-77
2021/05/28 10:04:05;;;;;;;7.53;1.50;;;;;;;34.82;20.21;99409.69;6159804;23;20115;-78
2021/05/28 10:06:34;;;;;;;8.80;1.52;;;;;;;35.04;20.58;99399.94;6184554;23;20053;-78
2021/05/28 10:09:10;;;;;;;10.13;1.30;;;;;;;35.07;19.39;99397.72;6159813;23;20100;-78
2021/05/28 10:11:37;;;;;;;17.90;1.63;;;;;;;35.48;19.26;99406.72;6185006;23;20060;-79
2021/05/28 10:14:04;;;;;;;6.53;1.40;;;;;;;35.74;18.68;99399.13;6184387;23;20047;-79
2021/05/28 10:16:30;;;;;;;11.68;1.50;;;;;;;36.00;19.35;99402.59;6160048;23;20295;-77
2021/05/28 10:18:56;;;;;;;6.07;1.50;;;;;;;36.06;19.11;99403.38;6184956;23;20095;-78
2021/05/28 10:21:23;;;;;;;9.75;1.77;;;;;;;36.13;18.97;99396.38;6185594;23;20496;-77
2021/05/28 10:23:49;;;;;;;13.02;1.83;;;;;;;35.79;19.03;99385.19;6134758;23;20016;-77
2021/05/28 10:26:28;;;;;;;9.85;1.40;;;;;;;36.15;18.91;99393.31;6184289;23;20025;-79
2021/05/28 10:28:55;;;;;;;7.45;2.28;;;;;;;36.14;18.60;99398.03;6160538;23;20017;-77
2021/05/28 10:31:56;;;;;;;7.75;1.58;;;;;;;36.43;18.82;99384.16;6159716;23;20360;-78
2021/05/28 10:34:26;;;;;;;6.47;1.25;;;;;;;36.27;18.65;99379.03;6184647;23;20021;-76
2021/05/28 10:36:54;;;;;;;7.10;1.60;;;;;;;36.24;19.01;99383.22;6135248;23;20056;-76
2021/05/28 10:39:20;;;;;;;8.82;1.60;;;;;;;36.63;19.36;99382.31;6159862;23;20025;-76
2021/05/28 10:41:50;;;;;;;12.13;1.92;;;;;;;37.38;18.93;99377.00;6159423;23;20020;-76
2021/05/28 10:44:19;;;;;;;10.55;1.50;;;;;;;37.90;17.98;99380.81;6184783;23;20342;-75
2021/05/28 10:46:52;;;;;;;5.68;1.40;;;;;;;38.10;18.05;99381.59;6135739;23;20335;-77
2021/05/28 10:49:18;;;;;;;22.23;1.98;;;;;;;38.20;17.75;99380.63;6185635;23;20021;-78
2021/05/28 10:51:47;;;;;;;11.23;1.35;;;;;;;37.82;18.00;99367.50;6158904;23;20049;-77
2021/05/28 10:54:16;;;;;;;11.02;1.40;;;;;;;38.12;17.96;99357.84;6185054;23;20017;-79
2021/05/28 10:56:42;;;;;;;12.85;1.52;;;;;;;38.36;17.43;99368.91;6185841;23;20096;-77
2021/05/28 10:59:18;;;;;;;7.65;2.08;;;;;;;38.85;17.40;99358.25;6185811;23;20017;-76
2021/05/28 11:01:45;;;;;;;21.80;2.10;;;;;;;38.99;17.29;99369.47;6183735;23;20430;-77
2021/05/28 11:04:16;;;;;;;6.90;1.30;;;;;;;39.07;16.74;99361.16;6136249;23;20467;-77
2021/05/28 11:06:58;;;;;;;10.27;1.65;;;;;;;39.50;17.08;99362.81;6159687;23;20364;-76
2021/05/28 11:09:49;;;;;;;9.88;1.85;;;;;;;39.92;16.84;99352.38;6184189;23;20021;-76
2021/05/28 11:12:17;;;;;;;9.07;1.88;;;;;;;39.87;16.63;99341.28;6136509;23;20342;-76
2021/05/28 11:15:10;;;;;;;7.45;1.17;;;;;;;40.20;16.73;99351.09;6159149;23;20021;-77
2021/05/28 11:17:55;;;;;;;16.83;1.73;;;;;;;40.01;16.63;99356.88;6162054;23;20330;-77
2021/05/28 11:20:24;;;;;;;41.33;3.42;;;;;;;40.49;16.68;99349.81;6159368;23;20020;-76
2021/05/28 11:22:50;;;;;;;20.25;1.92;;;;;;;40.87;16.24;99349.34;6158833;23;20047;-77
2021/05/28 11:25:18;;;;;;;36.35;2.83;;;;;;;41.16;15.79;99349.66;6158532;23;20021;-78
2021/05/28 11:28:06;;;;;;;46.53;3.28;;;;;;;41.23;15.74;99343.56;6112644;23;20021;-76